createdAt,value
2017-09-01T00:00:08.533Z,98815.30
2017-09-01T00:02:36.962Z,98814.19
2017-09-01T00:05:05.305Z,98812.59
2017-09-01T00:07:33.733Z,98810.34
2017-09-01T00:10:02.065Z,98805.38
2017-09-01T00:12:30.440Z,98805.21
2017-09-01T00:14:58.784Z,98801.38
2017-09-01T00:17:27.401Z,98799.19
2017-09-01T00:19:55.716Z,98797.42
2017-09-01T00:22:24.032Z,98798.03
2017-09-01T00:24:52.378Z,98794.96
2017-09-01T00:27:21.477Z,98793.93
2017-09-01T00:29:49.824Z,98792.45
2017-09-01T00:32:18.143Z,98790.22
2017-09-01T00:34:46.492Z,98789.72
2017-09-01T00:37:14.859Z,98789.33
2017-09-01T00:39:43.259Z,98786.52
2017-09-01T00:42:11.678Z,98788.56
2017-09-01T00:44:40.008Z,98786.45
2017-09-01T00:47:08.356Z,98795.02
2017-09-01T00:49:36.793Z,98795.27
2017-09-01T00:52:05.139Z,98794.05
2017-09-01T00:54:33.485Z,98792.22
2017-09-01T00:57:01.808Z,98798.80
2017-09-01T00:59:30.166Z,98796.23
2017-09-01T01:01:58.497Z,98798.05
2017-09-01T01:04:26.845Z,98794.08
2017-09-01T01:06:55.176Z,98789.55
2017-09-01T01:09:23.531Z,98789.73
2017-09-01T01:11:51.971Z,98793.18
2017-09-01T01:14:20.305Z,98794.78
2017-09-01T01:16:48.649Z,98794.18
2017-09-01T01:19:19.195Z,98795.02
2017-09-01T01:21:47.535Z,98789.55
2017-09-01T01:24:15.957Z,98793.88
2017-09-01T01:26:44.319Z,98799.20
2017-09-01T01:29:12.681Z,98799.77
2017-09-01T01:31:41.027Z,98802.72
2017-09-01T01:34:09.386Z,98798.73
2017-09-01T01:36:37.901Z,98800.06
2017-09-01T01:39:06.240Z,98802.12
2017-09-01T01:41:34.600Z,98804.39
2017-09-01T01:44:02.980Z,98795.91
2017-09-01T01:46:31.380Z,98797.56
2017-09-01T01:48:59.718Z,98795.91
2017-09-01T01:51:28.062Z,98789.75
2017-09-01T01:53:56.402Z,98789.59
2017-09-01T01:56:24.754Z,98792.31
2017-09-01T01:58:53.078Z,98789.45
2017-09-01T02:01:22.269Z,98787.14
2017-09-01T02:03:50.622Z,98790.03
2017-09-01T02:06:18.965Z,98790.27
2017-09-01T02:08:47.322Z,98783.97
2017-09-01T02:11:15.644Z,98781.09
2017-09-01T02:13:43.997Z,98787.98
2017-09-01T02:16:12.329Z,98782.21
2017-09-01T02:18:40.702Z,98780.73
2017-09-01T02:21:09.106Z,98776.55
2017-09-01T02:23:37.435Z,98775.00
2017-09-01T02:26:05.797Z,98772.05
2017-09-01T02:28:34.128Z,98773.11
2017-09-01T02:31:02.750Z,98772.68
2017-09-01T02:33:31.092Z,98771.86
2017-09-01T02:35:59.431Z,98767.92
2017-09-01T02:38:27.794Z,98766.94
2017-09-01T02:40:56.143Z,98763.34
2017-09-01T02:43:24.554Z,98768.16
2017-09-01T02:45:52.902Z,98767.42
2017-09-01T02:48:21.718Z,98767.23
2017-09-01T02:50:50.182Z,98764.52
2017-09-01T02:53:18.557Z,98760.94
2017-09-01T02:55:46.903Z,98759.67
2017-09-01T02:58:15.237Z,98758.05
2017-09-01T03:00:43.667Z,98748.70
2017-09-01T03:03:12.079Z,98754.81
2017-09-01T03:05:40.944Z,98748.06
2017-09-01T03:08:09.289Z,98748.73
2017-09-01T03:10:37.607Z,98739.59
2017-09-01T03:13:05.963Z,98743.42
2017-09-01T03:15:34.294Z,98746.66
2017-09-01T03:18:02.627Z,98738.89
2017-09-01T03:20:31.037Z,98733.86
2017-09-01T03:22:59.647Z,98736.41
2017-09-01T03:25:27.977Z,98734.55
2017-09-01T03:28:00.271Z,98739.89
2017-09-01T03:30:28.595Z,98734.73
2017-09-01T03:32:56.917Z,98734.21
2017-09-01T03:35:25.267Z,98741.72
2017-09-01T03:37:53.590Z,98738.28
2017-09-01T03:40:21.918Z,98733.83
2017-09-01T03:42:50.236Z,98736.83
2017-09-01T03:45:18.854Z,98732.84
2017-09-01T03:47:47.193Z,98733.08
2017-09-01T03:50:15.538Z,98735.70
2017-09-01T03:52:43.886Z,98732.45
2017-09-01T03:55:12.213Z,98737.13
2017-09-01T03:57:40.568Z,98740.29
2017-09-01T04:00:08.909Z,98736.29
2017-09-01T04:02:37.270Z,98738.66
2017-09-01T04:05:05.954Z,98746.61
2017-09-01T04:07:34.271Z,98747.67
2017-09-01T04:10:02.613Z,98745.59
2017-09-01T04:12:30.949Z,98748.54
2017-09-01T04:14:59.310Z,98754.52
2017-09-01T04:17:27.648Z,98761.34
2017-09-01T04:19:56.000Z,98763.70
2017-09-01T04:22:24.344Z,98767.48
2017-09-01T04:24:52.703Z,98776.63
2017-09-01T04:27:21.032Z,98778.11
2017-09-01T04:29:49.366Z,98772.52
2017-09-01T04:32:17.724Z,98771.70
2017-09-01T04:34:46.059Z,98775.57
2017-09-01T04:37:14.919Z,98784.46
2017-09-01T04:39:43.250Z,98779.57
2017-09-01T04:42:11.577Z,98784.78
2017-09-01T04:44:39.923Z,98779.33
2017-09-01T04:47:08.253Z,98784.47
2017-09-01T04:49:36.592Z,98784.48
2017-09-01T04:52:04.924Z,98781.63
2017-09-01T04:54:33.305Z,98783.97
2017-09-01T04:57:01.615Z,98782.50
2017-09-01T04:59:29.942Z,98787.81
2017-09-01T05:01:58.283Z,98791.48
2017-09-01T05:04:26.595Z,98795.06
2017-09-01T05:06:54.945Z,98791.42
2017-09-01T05:09:23.261Z,98794.09
2017-09-01T05:11:51.612Z,98797.02
2017-09-01T05:14:19.924Z,98790.75
2017-09-01T05:16:48.261Z,98790.00
2017-09-01T05:19:16.599Z,98794.73
2017-09-01T05:21:44.930Z,98800.12
2017-09-01T05:24:13.287Z,98795.65
2017-09-01T05:26:41.609Z,98793.02
2017-09-01T05:29:09.961Z,98789.61
2017-09-01T05:31:38.375Z,98789.94
2017-09-01T05:34:06.746Z,98789.37
2017-09-01T05:36:35.107Z,98793.62
2017-09-01T05:39:04.349Z,98787.66
2017-09-01T05:41:32.693Z,98789.70
2017-09-01T05:44:01.034Z,98781.53
2017-09-01T05:46:29.789Z,98778.92
2017-09-01T05:48:58.129Z,98778.04
2017-09-01T05:51:26.456Z,98780.63
2017-09-01T05:53:55.301Z,98780.16
2017-09-01T05:56:23.614Z,98777.37
2017-09-01T05:58:51.956Z,98764.79
2017-09-01T06:01:20.319Z,98769.83
2017-09-01T06:03:48.636Z,98775.31
2017-09-01T06:06:17.534Z,98766.88
2017-09-01T06:08:45.859Z,98766.84
2017-09-01T06:11:14.175Z,98770.02
2017-09-01T06:13:42.545Z,98773.45
2017-09-01T06:16:10.884Z,98773.59
2017-09-01T06:18:42.709Z,98772.19
2017-09-01T06:21:11.027Z,98772.93
2017-09-01T06:23:39.360Z,98768.72
2017-09-01T06:26:07.679Z,98766.28
2017-09-01T06:28:36.017Z,98767.31
2017-09-01T06:31:04.376Z,98770.08
2017-09-01T06:33:32.698Z,98766.61
2017-09-01T06:36:01.050Z,98764.13
2017-09-01T06:38:29.406Z,98765.09
2017-09-01T06:40:58.162Z,98767.34
2017-09-01T06:43:26.493Z,98769.00
2017-09-01T06:45:54.832Z,98765.66
2017-09-01T06:48:23.176Z,98768.11
2017-09-01T06:50:51.502Z,98768.17
2017-09-01T06:53:19.881Z,98764.32
2017-09-01T06:55:48.209Z,98762.52
2017-09-01T06:58:16.889Z,98758.62
2017-09-01T07:00:45.211Z,98764.54
2017-09-01T07:03:13.545Z,98764.02
2017-09-01T07:05:41.926Z,98759.25
2017-09-01T07:08:10.260Z,98752.95
2017-09-01T07:10:38.614Z,98749.20
2017-09-01T07:13:06.945Z,98752.80
2017-09-01T07:15:37.184Z,98752.59
2017-09-01T07:18:05.508Z,98754.22
2017-09-01T07:20:33.845Z,98743.98
2017-09-01T07:23:02.266Z,98751.45
2017-09-01T07:25:30.586Z,98747.30
2017-09-01T07:27:58.927Z,98741.56
2017-09-01T07:30:27.261Z,98737.46
2017-09-01T07:32:55.613Z,98730.16
2017-09-01T07:35:23.942Z,98730.00
2017-09-01T07:37:52.293Z,98730.76
2017-09-01T07:40:20.656Z,98730.55
2017-09-01T07:42:48.991Z,98732.75
2017-09-01T07:45:17.351Z,98729.98
2017-09-01T07:47:45.691Z,98727.43
2017-09-01T07:50:14.103Z,98728.58
2017-09-01T07:52:42.433Z,98727.57
2017-09-01T07:55:10.796Z,98731.19
2017-09-01T07:57:39.165Z,98731.75
2017-09-01T08:00:07.518Z,98736.09
2017-09-01T08:02:35.901Z,98730.23
2017-09-01T08:05:04.250Z,98733.19
2017-09-01T08:07:32.610Z,98727.55
2017-09-01T08:10:00.968Z,98728.91
2017-09-01T08:12:29.294Z,98726.59
2017-09-01T08:14:57.639Z,98730.57
2017-09-01T08:17:25.964Z,98725.97
2017-09-01T08:19:54.668Z,98728.73
2017-09-01T08:22:22.997Z,98729.88
2017-09-01T08:24:51.320Z,98731.25
2017-09-01T08:27:19.665Z,98734.01
2017-09-01T08:29:48.004Z,98730.31
2017-09-01T08:32:16.399Z,98727.20
2017-09-01T08:34:45.163Z,98731.47
2017-09-01T08:37:13.931Z,98723.08
2017-09-01T08:39:42.294Z,98721.19
2017-09-01T08:42:10.629Z,98721.42
2017-09-01T08:44:38.974Z,98721.52
2017-09-01T08:47:07.307Z,98710.73
2017-09-01T08:49:35.678Z,98701.19
2017-09-01T08:52:04.033Z,98702.72
2017-09-01T08:54:32.905Z,98704.72
2017-09-01T08:57:01.247Z,98711.12
2017-09-01T08:59:29.602Z,98711.73
2017-09-01T09:01:57.956Z,98709.27
2017-09-01T09:04:26.297Z,98706.43
2017-09-01T09:06:54.652Z,98704.48
2017-09-01T09:09:22.991Z,98706.68
2017-09-01T09:11:51.335Z,98694.64
2017-09-01T09:14:19.680Z,98695.89
2017-09-01T09:16:48.023Z,98695.02
2017-09-01T09:19:16.395Z,98691.89
2017-09-01T09:21:44.741Z,98698.70
2017-09-01T09:24:13.395Z,98695.54
2017-09-01T09:26:41.740Z,98691.84
2017-09-01T09:29:10.082Z,98691.84
2017-09-01T09:31:38.436Z,98687.70
2017-09-01T09:34:06.776Z,98682.93
2017-09-01T09:36:35.140Z,98680.73
2017-09-01T09:39:03.481Z,98676.89
2017-09-01T09:41:31.844Z,98678.26
2017-09-01T09:44:00.169Z,98672.91
2017-09-01T09:46:28.510Z,98664.31
2017-09-01T09:48:56.860Z,98670.28
2017-09-01T09:51:25.188Z,98672.38
2017-09-01T09:53:53.543Z,98668.05
2017-09-01T09:56:21.876Z,98665.92
2017-09-01T09:58:50.781Z,98658.81
2017-09-01T10:01:19.110Z,98657.18
2017-09-01T10:03:47.432Z,98659.42
2017-09-01T10:06:16.495Z,98660.66
2017-09-01T10:08:44.867Z,98660.36
2017-09-01T10:11:13.283Z,98655.98
2017-09-01T10:13:41.627Z,98659.75
2017-09-01T10:16:10.385Z,98661.59
2017-09-01T10:18:38.710Z,98660.72
2017-09-01T10:21:07.033Z,98657.61
2017-09-01T10:23:35.381Z,98659.45
2017-09-01T10:26:03.714Z,98650.72
2017-09-01T10:28:32.079Z,98652.76
2017-09-01T10:31:00.404Z,98648.27
2017-09-01T10:33:29.487Z,98647.30
2017-09-01T10:35:57.847Z,98646.59
2017-09-01T10:38:26.225Z,98653.41
2017-09-01T10:40:54.615Z,98652.64
2017-09-01T10:43:22.950Z,98649.17
2017-09-01T10:45:51.348Z,98652.33
2017-09-01T10:51:46.027Z,98653.55
2017-09-01T10:57:45.414Z,98656.91
2017-09-01T11:00:13.761Z,98650.91
2017-09-01T11:02:42.119Z,98654.16
2017-09-01T11:05:10.462Z,98656.61
2017-09-01T11:07:38.822Z,98656.09
2017-09-01T11:10:10.028Z,98660.13
2017-09-01T11:12:38.835Z,98655.07
2017-09-01T11:15:07.173Z,98655.88
2017-09-01T11:17:35.507Z,98650.56
2017-09-01T11:20:09.127Z,98653.69
2017-09-01T11:22:42.876Z,98655.92
2017-09-01T11:25:11.242Z,98654.07
2017-09-01T11:27:39.599Z,98655.66
2017-09-01T11:30:08.265Z,98658.89
2017-09-01T11:32:36.601Z,98659.13
2017-09-01T11:37:32.590Z,98658.11
2017-09-01T11:40:00.936Z,98660.81
2017-09-01T11:42:29.300Z,98657.64
2017-09-01T11:44:57.625Z,98656.16
2017-09-01T11:47:25.961Z,98655.96
2017-09-01T11:49:54.303Z,98657.95
2017-09-01T11:52:22.615Z,98654.84
2017-09-01T11:54:50.980Z,98649.64
2017-09-01T11:57:19.315Z,98645.56
2017-09-01T11:59:47.701Z,98646.79
2017-09-01T12:02:16.027Z,98647.16
2017-09-01T12:04:44.387Z,98637.56
2017-09-01T12:07:12.743Z,98635.27
2017-09-01T12:09:41.094Z,98640.20
2017-09-01T12:12:09.453Z,98636.84
2017-09-01T12:14:38.759Z,98635.06
2017-09-01T12:17:07.112Z,98640.58
2017-09-01T12:19:35.463Z,98637.72
2017-09-01T12:22:03.796Z,98641.91
2017-09-01T12:24:32.144Z,98634.20
2017-09-01T12:27:00.484Z,98626.86
2017-09-01T12:29:28.868Z,98623.89
2017-09-01T12:31:57.193Z,98628.03
2017-09-01T12:34:25.532Z,98615.13
2017-09-01T12:36:53.999Z,98623.73
2017-09-01T12:39:22.376Z,98626.38
2017-09-01T12:41:50.731Z,98625.46
2017-09-01T12:44:19.064Z,98617.61
2017-09-01T12:46:47.421Z,98614.15
2017-09-01T12:49:15.781Z,98615.61
2017-09-01T12:51:44.103Z,98610.00
2017-09-01T12:54:12.524Z,98597.83
2017-09-01T12:56:40.867Z,98599.88
2017-09-01T12:59:09.210Z,98605.22
2017-09-01T13:01:37.526Z,98602.43
2017-09-01T13:04:05.871Z,98601.81
2017-09-01T13:06:34.207Z,98607.44
2017-09-01T13:09:02.519Z,98599.27
2017-09-01T13:11:30.873Z,98597.88
2017-09-01T13:13:59.219Z,98592.52
2017-09-01T13:16:27.599Z,98584.29
2017-09-01T13:18:55.964Z,98582.30
2017-09-01T13:21:24.298Z,98589.63
2017-09-01T13:23:52.644Z,98582.34
2017-09-01T13:26:20.981Z,98575.48
2017-09-01T13:28:49.347Z,98572.98
2017-09-01T13:31:17.693Z,98576.88
2017-09-01T13:33:46.348Z,98565.86
2017-09-01T13:36:14.677Z,98563.22
2017-09-01T13:38:43.021Z,98562.25
2017-09-01T13:41:11.380Z,98556.36
2017-09-01T13:43:39.722Z,98551.60
2017-09-01T13:46:08.765Z,98558.06
2017-09-01T13:48:37.106Z,98551.23
2017-09-01T13:51:05.851Z,98551.71
2017-09-01T13:53:34.252Z,98548.72
2017-09-01T13:56:02.593Z,98545.18
2017-09-01T13:58:30.993Z,98549.64
2017-09-01T14:00:59.339Z,98536.51
2017-09-01T14:03:27.718Z,98536.38
2017-09-01T14:05:56.087Z,98522.03
2017-09-01T14:08:24.416Z,98525.09
2017-09-01T14:10:52.767Z,98518.39
2017-09-01T14:13:21.105Z,98521.94
2017-09-01T14:15:49.453Z,98524.78
2017-09-01T14:18:17.837Z,98526.40
2017-09-01T14:20:46.199Z,98522.13
2017-09-01T14:23:14.541Z,98525.80
2017-09-01T14:25:42.885Z,98529.33
2017-09-01T14:28:11.241Z,98538.80
2017-09-01T14:30:39.574Z,98543.30
2017-09-01T14:33:07.916Z,98542.08
2017-09-01T14:35:36.654Z,98541.78
2017-09-01T14:38:05.437Z,98542.69
2017-09-01T14:40:33.768Z,98552.61
2017-09-01T14:43:02.112Z,98551.89
2017-09-01T14:45:30.500Z,98553.17
2017-09-01T14:47:58.839Z,98558.31
2017-09-01T14:50:28.171Z,98552.81
2017-09-01T14:52:56.511Z,98557.60
2017-09-01T14:55:24.885Z,98554.53
2017-09-01T14:57:53.229Z,98564.38
2017-09-01T15:00:21.602Z,98560.80
2017-09-01T15:02:49.945Z,98562.41
2017-09-01T15:05:18.270Z,98566.28
2017-09-01T15:07:46.641Z,98564.36
2017-09-01T15:10:15.010Z,98569.91
2017-09-01T15:12:43.332Z,98566.63
2017-09-01T15:15:11.700Z,98569.92
2017-09-01T15:17:40.038Z,98570.90
2017-09-01T15:20:08.391Z,98565.03
2017-09-01T15:22:39.815Z,98560.95
2017-09-01T15:25:09.207Z,98558.76
2017-09-01T15:27:37.980Z,98566.55
2017-09-01T15:30:06.309Z,98562.75
2017-09-01T15:32:34.669Z,98561.11
2017-09-01T15:35:03.039Z,98557.64
2017-09-01T15:37:31.410Z,98560.05
2017-09-01T15:39:59.764Z,98556.72
2017-09-01T15:42:28.136Z,98563.16
2017-09-01T15:44:58.346Z,98558.82
2017-09-01T15:47:26.750Z,98562.33
2017-09-01T15:49:55.133Z,98567.28
2017-09-01T15:52:23.545Z,98563.77
2017-09-01T15:54:51.889Z,98559.47
2017-09-01T15:57:20.237Z,98564.74
2017-09-01T15:59:52.187Z,98563.31
2017-09-01T16:02:20.642Z,98563.30
2017-09-01T16:04:48.959Z,98563.14
2017-09-01T16:07:17.323Z,98563.41
2017-09-01T16:09:45.662Z,98565.34
2017-09-01T16:12:14.037Z,98561.16
2017-09-01T16:14:42.368Z,98561.27
2017-09-01T16:17:10.725Z,98555.47
2017-09-01T16:19:39.091Z,98553.47
2017-09-01T16:22:07.451Z,98555.25
2017-09-01T16:24:35.803Z,98553.32
2017-09-01T16:27:04.154Z,98559.64
2017-09-01T16:29:32.586Z,98565.63
2017-09-01T16:32:00.926Z,98564.53
2017-09-01T16:34:29.280Z,98555.59
2017-09-01T16:36:57.651Z,98553.23
2017-09-01T16:39:25.990Z,98552.77
2017-09-01T16:41:54.341Z,98547.29
2017-09-01T16:44:22.669Z,98548.04
2017-09-01T16:46:51.018Z,98541.57
2017-09-01T16:49:19.368Z,98543.42
2017-09-01T16:51:47.719Z,98545.32
2017-09-01T16:54:16.068Z,98548.59
2017-09-01T16:56:44.429Z,98547.27
2017-09-01T16:59:12.793Z,98547.67
2017-09-01T17:01:41.141Z,98546.02
2017-09-01T17:04:09.484Z,98549.39
2017-09-01T17:06:37.880Z,98546.50
2017-09-01T17:09:06.503Z,98546.30
2017-09-01T17:11:34.873Z,98544.85
2017-09-01T17:14:03.208Z,98547.23
2017-09-01T17:16:31.566Z,98546.28
2017-09-01T17:18:59.907Z,98536.58
2017-09-01T17:21:28.259Z,98543.59
2017-09-01T17:23:56.586Z,98540.70
2017-09-01T17:26:24.954Z,98545.44
2017-09-01T17:28:53.332Z,98551.41
2017-09-01T17:31:21.667Z,98556.19
2017-09-01T17:33:50.061Z,98558.48
2017-09-01T17:36:18.399Z,98553.06
2017-09-01T17:38:46.752Z,98550.08
2017-09-01T17:41:15.132Z,98557.02
2017-09-01T17:43:43.552Z,98557.97
2017-09-01T17:46:11.923Z,98555.50
2017-09-01T17:48:40.264Z,98557.17
2017-09-01T17:51:08.615Z,98554.40
2017-09-01T17:53:36.949Z,98560.27
2017-09-01T17:56:05.303Z,98552.67
2017-09-01T17:58:33.684Z,98555.78
2017-09-01T18:01:02.350Z,98559.98
2017-09-01T18:03:30.702Z,98561.73
2017-09-01T18:05:59.092Z,98568.42
2017-09-01T18:08:28.515Z,98573.27
2017-09-01T18:10:56.857Z,98575.21
2017-09-01T18:13:25.288Z,98572.44
2017-09-01T18:15:53.689Z,98576.42
2017-09-01T18:18:22.078Z,98571.94
2017-09-01T18:20:50.442Z,98576.50
2017-09-01T18:23:19.102Z,98568.92
2017-09-01T18:25:47.445Z,98575.16
2017-09-01T18:28:15.779Z,98572.00
2017-09-01T18:30:44.137Z,98572.59
2017-09-01T18:33:12.513Z,98574.75
2017-09-01T18:35:40.904Z,98572.82
2017-09-01T18:38:09.246Z,98574.13
2017-09-01T18:40:38.679Z,98573.75
2017-09-01T18:43:07.032Z,98577.48
2017-09-01T18:45:35.362Z,98578.21
2017-09-01T18:48:03.727Z,98582.97
2017-09-01T18:50:32.070Z,98586.80
2017-09-01T18:53:00.430Z,98582.66
2017-09-01T18:55:28.842Z,98581.75
2017-09-01T18:57:57.471Z,98577.69
2017-09-01T19:00:25.915Z,98576.77
2017-09-01T19:02:54.302Z,98585.39
2017-09-01T19:05:22.723Z,98575.36
2017-09-01T19:07:51.088Z,98577.18
2017-09-01T19:10:19.438Z,98576.46
2017-09-01T19:12:47.832Z,98581.86
2017-09-01T19:15:16.613Z,98578.69
2017-09-01T19:17:44.948Z,98582.54
2017-09-01T19:20:13.276Z,98575.95
2017-09-01T19:22:41.653Z,98582.63
2017-09-01T19:25:09.978Z,98580.91
2017-09-01T19:27:38.338Z,98582.23
2017-09-01T19:30:06.669Z,98583.62
2017-09-01T19:32:35.061Z,98577.63
2017-09-01T19:35:03.464Z,98579.00
2017-09-01T19:37:31.798Z,98581.13
2017-09-01T19:40:00.150Z,98578.44
2017-09-01T19:42:28.488Z,98583.58
2017-09-01T19:44:56.841Z,98591.17
2017-09-01T19:47:25.182Z,98592.98
2017-09-01T19:49:53.546Z,98589.17
2017-09-01T19:52:21.930Z,98588.47
2017-09-01T19:54:50.259Z,98587.55
2017-09-01T19:57:18.640Z,98586.66
2017-09-01T19:59:46.986Z,98589.10
2017-09-01T20:02:15.363Z,98584.13
2017-09-01T20:04:43.703Z,98585.98
2017-09-01T20:07:12.310Z,98587.66
2017-09-01T20:09:40.671Z,98589.28
2017-09-01T20:12:09.005Z,98586.16
2017-09-01T20:14:37.350Z,98588.36
2017-09-01T20:17:05.681Z,98578.98
2017-09-01T20:19:34.289Z,98587.69
2017-09-01T20:22:02.624Z,98584.48
2017-09-01T20:24:30.952Z,98598.31
2017-09-01T20:26:59.301Z,98597.20
2017-09-01T20:29:27.685Z,98598.62
2017-09-01T20:31:56.032Z,98602.39
2017-09-01T20:34:24.358Z,98606.45
2017-09-01T20:36:52.770Z,98604.78
2017-09-01T20:39:21.150Z,98603.28
2017-09-01T20:41:49.738Z,98605.81
2017-09-01T20:44:18.676Z,98609.06
2017-09-01T20:46:47.079Z,98603.59
2017-09-01T20:49:15.426Z,98603.24
2017-09-01T20:51:44.827Z,98601.15
2017-09-01T20:54:13.184Z,98598.76
2017-09-01T20:56:41.554Z,98595.12
2017-09-01T20:59:09.996Z,98598.92
2017-09-01T21:01:38.457Z,98608.28
2017-09-01T21:04:06.776Z,98611.96
2017-09-01T21:06:35.203Z,98613.87
2017-09-01T21:09:03.551Z,98600.05
2017-09-01T21:11:31.935Z,98604.78
2017-09-01T21:14:00.288Z,98605.73
2017-09-01T21:16:28.622Z,98607.81
2017-09-01T21:18:56.990Z,98614.77
2017-09-01T21:21:25.322Z,98617.72
2017-09-01T21:23:53.813Z,98617.29
2017-09-01T21:26:22.192Z,98622.94
2017-09-01T21:28:51.312Z,98625.09
2017-09-01T21:31:19.633Z,98627.36
2017-09-01T21:33:47.973Z,98629.88
2017-09-01T21:36:16.327Z,98630.64
2017-09-01T21:38:44.697Z,98629.77
2017-09-01T21:41:13.045Z,98623.71
2017-09-01T21:43:42.339Z,98620.89
2017-09-01T21:46:10.765Z,98624.09
2017-09-01T21:48:39.110Z,98621.54
2017-09-01T21:51:07.419Z,98621.70
2017-09-01T21:53:35.765Z,98618.23
2017-09-01T21:56:04.087Z,98621.04
2017-09-01T21:58:32.425Z,98620.55
2017-09-01T22:01:18.488Z,98618.44
2017-09-01T22:03:46.841Z,98614.75
2017-09-01T22:06:17.323Z,98615.42
2017-09-01T22:08:45.719Z,98611.16
2017-09-01T22:11:14.092Z,98610.47
2017-09-01T22:13:42.431Z,98613.06
2017-09-01T22:16:10.787Z,98614.39
2017-09-01T22:18:39.124Z,98612.05
2017-09-01T22:21:07.473Z,98613.55
2017-09-01T22:23:35.830Z,98612.62
2017-09-01T22:26:04.157Z,98611.00
2017-09-01T22:28:32.524Z,98613.55
2017-09-01T22:31:01.759Z,98611.11
2017-09-01T22:33:30.128Z,98609.34
2017-09-01T22:35:58.458Z,98612.11
2017-09-01T22:38:26.805Z,98602.66
2017-09-01T22:40:55.167Z,98600.88
2017-09-01T22:43:23.501Z,98602.17
2017-09-01T22:45:51.861Z,98596.20
2017-09-01T22:48:20.194Z,98602.14
2017-09-01T22:50:48.552Z,98600.84
2017-09-01T22:53:16.885Z,98593.90
2017-09-01T22:55:45.209Z,98602.45
2017-09-01T22:58:13.563Z,98603.02
2017-09-01T23:00:41.897Z,98604.73
2017-09-01T23:03:10.240Z,98608.63
2017-09-01T23:05:38.569Z,98610.66
2017-09-01T23:08:07.161Z,98615.63
2017-09-01T23:10:35.490Z,98606.50
2017-09-01T23:13:03.808Z,98616.58
2017-09-01T23:15:32.144Z,98616.85
2017-09-01T23:18:00.455Z,98613.59
2017-09-01T23:20:28.794Z,98612.76
2017-09-01T23:22:57.138Z,98616.66
2017-09-01T23:25:25.776Z,98608.68
2017-09-01T23:27:54.108Z,98609.92
2017-09-01T23:30:22.445Z,98605.87
2017-09-01T23:32:50.807Z,98603.22
2017-09-01T23:35:19.140Z,98599.31
2017-09-01T23:37:47.488Z,98602.73
2017-09-01T23:40:15.829Z,98601.58
2017-09-01T23:42:44.181Z,98603.36
2017-09-01T23:45:12.508Z,98599.30
2017-09-01T23:47:42.641Z,98595.83
2017-09-01T23:50:10.985Z,98594.53
2017-09-01T23:52:39.310Z,98589.35
2017-09-01T23:55:07.656Z,98591.61
2017-09-01T23:57:35.979Z,98596.91
